Terminal Aerodrome Forecast
Issued by NWS

Home | Current Version | Previous Version | Text Only | Print | Product List | Glossary On
Versions: 1 2 3 4 5 6 7 8 9 10 11 12 13 14 15 16 17
000
FTUS45 KPSR 270522
TAFIWA
TAF
KIWA 270522Z 2706/2806 28005KT P6SM FEW100 SCT250
     FM270700 22005KT P6SM FEW120 SCT250
     FM270900 12006KT P6SM FEW120 SCT250
     FM271900 28012G18KT P6SM SCT120 SCT200
      AMD LTD TO CLD VIS AND WIND TIL 271300=

USA.gov is the U.S. government's official web portal to all federal, state and local government web resources and services.